Terminal Aerodrome Forecast
Issued by NWS Sioux Falls, SD

Home | Current Version | Previous Version | Text Only | Print | Product List | Glossary On
Versions: 1 2 3 4 5 6 7 8 9 10 11 12 13 14 15 16 17 18 19 20 21 22 23 24 25 26 27
000
FTUS43 KFSD 281731
TAFSUX
TAF
KSUX 281731Z 2818/2918 VRB03KT P6SM BKN150
     FM282300 05009KT P6SM OVC120
     FM290400 06010KT P6SM OVC015
     FM290700 05011KT 3SM -SN OVC015
     FM290900 04012KT 2SM -SN OVC008
     FM291600 02012G18KT 6SM -SN OVC015=

USA.gov is the U.S. government's official web portal to all federal, state and local government web resources and services.